sensor_id;sensor_type;location;lat;lon;timestamp;temperature;humidity
70271;SHT31;57680;54.292;18.598;2022-10-26T00:00:26;11.07;95.86
70271;SHT31;57680;54.292;18.598;2022-10-26T00:02:54;11.12;95.86
70271;SHT31;57680;54.292;18.598;2022-10-26T00:05:21;11.06;95.83
70271;SHT31;57680;54.292;18.598;2022-10-26T00:07:47;11.02;95.96
70271;SHT31;57680;54.292;18.598;2022-10-26T00:10:13;10.96;96.02
70271;SHT31;57680;54.292;18.598;2022-10-26T00:12:39;10.93;96.03
70271;SHT31;57680;54.292;18.598;2022-10-26T00:15:05;10.91;96.25
70271;SHT31;57680;54.292;18.598;2022-10-26T00:17:31;10.86;96.26
70271;SHT31;57680;54.292;18.598;2022-10-26T00:19:56;10.89;96.38
70271;SHT31;57680;54.292;18.598;2022-10-26T00:22:22;10.89;96.44
70271;SHT31;57680;54.292;18.598;2022-10-26T00:24:48;10.91;96.63
70271;SHT31;57680;54.292;18.598;2022-10-26T00:27:14;10.89;96.43
70271;SHT31;57680;54.292;18.598;2022-10-26T00:29:39;10.93;96.59
70271;SHT31;57680;54.292;18.598;2022-10-26T00:32:05;10.97;96.59
70271;SHT31;57680;54.292;18.598;2022-10-26T00:34:31;11.03;96.57
70271;SHT31;57680;54.292;18.598;2022-10-26T00:36:57;11.09;96.40
70271;SHT31;57680;54.292;18.598;2022-10-26T00:39:22;11.12;96.40
70271;SHT31;57680;54.292;18.598;2022-10-26T00:41:48;11.13;95.98
70271;SHT31;57680;54.292;18.598;2022-10-26T00:47:21;11.14;95.67
70271;SHT31;57680;54.292;18.598;2022-10-26T00:49:50;11.14;95.70
70271;SHT31;57680;54.292;18.598;2022-10-26T00:52:18;11.13;95.94
70271;SHT31;57680;54.292;18.598;2022-10-26T00:54:44;11.16;96.02
70271;SHT31;57680;54.292;18.598;2022-10-26T00:57:11;11.19;96.30
70271;SHT31;57680;54.292;18.598;2022-10-26T00:59:38;11.22;96.22
70271;SHT31;57680;54.292;18.598;2022-10-26T01:02:04;11.24;96.06
70271;SHT31;57680;54.292;18.598;2022-10-26T01:04:32;11.34;95.96
70271;SHT31;57680;54.292;18.598;2022-10-26T01:06:59;11.40;95.75
70271;SHT31;57680;54.292;18.598;2022-10-26T01:09:25;11.44;95.54
70271;SHT31;57680;54.292;18.598;2022-10-26T01:11:51;11.45;95.27
70271;SHT31;57680;54.292;18.598;2022-10-26T01:14:18;11.50;95.10
70271;SHT31;57680;54.292;18.598;2022-10-26T01:21:57;11.61;94.47
70271;SHT31;57680;54.292;18.598;2022-10-26T01:27:46;11.71;93.97
70271;SHT31;57680;54.292;18.598;2022-10-26T01:33:21;11.81;93.46
70271;SHT31;57680;54.292;18.598;2022-10-26T01:38:49;11.81;93.34
70271;SHT31;57680;54.292;18.598;2022-10-26T01:41:33;11.88;93.15
70271;SHT31;57680;54.292;18.598;2022-10-26T01:44:10;11.86;92.89
70271;SHT31;57680;54.292;18.598;2022-10-26T01:46:40;11.91;92.88
70271;SHT31;57680;54.292;18.598;2022-10-26T01:49:09;11.94;92.83
70271;SHT31;57680;54.292;18.598;2022-10-26T01:51:38;11.84;92.85
70271;SHT31;57680;54.292;18.598;2022-10-26T01:54:05;11.84;92.97
70271;SHT31;57680;54.292;18.598;2022-10-26T01:56:34;11.84;92.83
70271;SHT31;57680;54.292;18.598;2022-10-26T02:04:15;11.71;93.19
70271;SHT31;57680;54.292;18.598;2022-10-26T02:07:02;11.67;93.40
70271;SHT31;57680;54.292;18.598;2022-10-26T02:15:22;11.45;93.66
70271;SHT31;57680;54.292;18.598;2022-10-26T02:17:57;11.35;94.07
70271;SHT31;57680;54.292;18.598;2022-10-26T02:20:34;11.33;94.20
70271;SHT31;57680;54.292;18.598;2022-10-26T02:23:03;11.30;94.06
70271;SHT31;57680;54.292;18.598;2022-10-26T02:25:33;11.23;94.05
70271;SHT31;57680;54.292;18.598;2022-10-26T02:28:12;11.16;94.50
70271;SHT31;57680;54.292;18.598;2022-10-26T02:30:41;11.13;94.55
70271;SHT31;57680;54.292;18.598;2022-10-26T02:33:09;11.09;94.65
70271;SHT31;57680;54.292;18.598;2022-10-26T02:35:37;11.10;94.66
70271;SHT31;57680;54.292;18.598;2022-10-26T02:38:08;11.06;94.77
70271;SHT31;57680;54.292;18.598;2022-10-26T02:40:35;11.02;94.90
70271;SHT31;57680;54.292;18.598;2022-10-26T02:43:07;11.03;94.83
70271;SHT31;57680;54.292;18.598;2022-10-26T02:45:43;10.99;94.82
70271;SHT31;57680;54.292;18.598;2022-10-26T02:48:11;10.97;94.81
70271;SHT31;57680;54.292;18.598;2022-10-26T02:53:34;10.93;94.94
70271;SHT31;57680;54.292;18.598;2022-10-26T02:56:07;10.97;94.91
70271;SHT31;57680;54.292;18.598;2022-10-26T02:58:38;11.03;95.09
70271;SHT31;57680;54.292;18.598;2022-10-26T03:01:05;11.03;94.88
70271;SHT31;57680;54.292;18.598;2022-10-26T03:03:31;11.06;94.67
70271;SHT31;57680;54.292;18.598;2022-10-26T03:05:57;11.27;94.11
70271;SHT31;57680;54.292;18.598;2022-10-26T03:08:22;11.37;93.36
70271;SHT31;57680;54.292;18.598;2022-10-26T03:10:48;11.19;93.76
70271;SHT31;57680;54.292;18.598;2022-10-26T03:13:14;11.17;93.75
70271;SHT31;57680;54.292;18.598;2022-10-26T03:15:39;11.17;94.07
70271;SHT31;57680;54.292;18.598;2022-10-26T03:18:05;11.13;94.29
70271;SHT31;57680;54.292;18.598;2022-10-26T03:20:31;11.10;94.43
70271;SHT31;57680;54.292;18.598;2022-10-26T03:22:57;11.04;94.38
70271;SHT31;57680;54.292;18.598;2022-10-26T03:25:25;11.03;94.60
70271;SHT31;57680;54.292;18.598;2022-10-26T03:28:02;10.99;94.63
70271;SHT31;57680;54.292;18.598;2022-10-26T03:30:28;10.99;94.50
70271;SHT31;57680;54.292;18.598;2022-10-26T03:32:55;10.93;94.65
70271;SHT31;57680;54.292;18.598;2022-10-26T03:35:21;10.89;94.69
70271;SHT31;57680;54.292;18.598;2022-10-26T03:37:46;10.83;94.96
70271;SHT31;57680;54.292;18.598;2022-10-26T03:40:12;10.86;94.99
70271;SHT31;57680;54.292;18.598;2022-10-26T03:42:38;10.80;95.16
70271;SHT31;57680;54.292;18.598;2022-10-26T03:45:05;10.77;95.33
70271;SHT31;57680;54.292;18.598;2022-10-26T03:47:30;10.77;95.34
70271;SHT31;57680;54.292;18.598;2022-10-26T03:49:56;10.79;95.25
70271;SHT31;57680;54.292;18.598;2022-10-26T03:52:22;10.80;95.21
70271;SHT31;57680;54.292;18.598;2022-10-26T03:54:49;10.79;95.34
70271;SHT31;57680;54.292;18.598;2022-10-26T03:57:15;10.82;95.43
70271;SHT31;57680;54.292;18.598;2022-10-26T03:59:41;10.80;95.19
70271;SHT31;57680;54.292;18.598;2022-10-26T04:02:06;10.80;95.17
70271;SHT31;57680;54.292;18.598;2022-10-26T04:04:32;10.93;95.04
70271;SHT31;57680;54.292;18.598;2022-10-26T04:06:57;10.86;95.04
70271;SHT31;57680;54.292;18.598;2022-10-26T04:09:23;10.96;94.86
70271;SHT31;57680;54.292;18.598;2022-10-26T04:11:48;10.92;94.86
70271;SHT31;57680;54.292;18.598;2022-10-26T04:14:14;10.93;94.87
70271;SHT31;57680;54.292;18.598;2022-10-26T04:16:40;10.97;94.76
70271;SHT31;57680;54.292;18.598;2022-10-26T04:19:05;11.04;94.48
70271;SHT31;57680;54.292;18.598;2022-10-26T04:21:31;11.03;94.15
70271;SHT31;57680;54.292;18.598;2022-10-26T04:24:00;11.03;94.29
70271;SHT31;57680;54.292;18.598;2022-10-26T04:26:26;11.07;94.02
70271;SHT31;57680;54.292;18.598;2022-10-26T04:28:52;11.03;94.32
70271;SHT31;57680;54.292;18.598;2022-10-26T04:31:18;11.10;94.52
70271;SHT31;57680;54.292;18.598;2022-10-26T04:33:43;11.13;94.68
70271;SHT31;57680;54.292;18.598;2022-10-26T04:36:09;11.19;94.09
70271;SHT31;57680;54.292;18.598;2022-10-26T04:38:35;11.27;94.13
70271;SHT31;57680;54.292;18.598;2022-10-26T04:41:01;11.37;93.86
70271;SHT31;57680;54.292;18.598;2022-10-26T04:43:26;11.37;93.82
70271;SHT31;57680;54.292;18.598;2022-10-26T04:45:56;11.51;92.96
70271;SHT31;57680;54.292;18.598;2022-10-26T04:48:22;11.53;93.20
70271;SHT31;57680;54.292;18.598;2022-10-26T04:50:48;11.51;92.51
70271;SHT31;57680;54.292;18.598;2022-10-26T04:53:14;11.45;93.23
70271;SHT31;57680;54.292;18.598;2022-10-26T04:55:40;11.43;93.46
70271;SHT31;57680;54.292;18.598;2022-10-26T04:58:05;11.40;93.80
70271;SHT31;57680;54.292;18.598;2022-10-26T05:00:31;11.40;93.82
70271;SHT31;57680;54.292;18.598;2022-10-26T05:02:58;11.41;93.68
70271;SHT31;57680;54.292;18.598;2022-10-26T05:05:24;11.44;93.41
70271;SHT31;57680;54.292;18.598;2022-10-26T05:07:54;11.50;93.25
70271;SHT31;57680;54.292;18.598;2022-10-26T05:10:23;11.50;93.19
70271;SHT31;57680;54.292;18.598;2022-10-26T05:12:53;11.44;93.16
70271;SHT31;57680;54.292;18.598;2022-10-26T05:15:19;11.45;93.21
70271;SHT31;57680;54.292;18.598;2022-10-26T05:17:45;11.41;93.31
70271;SHT31;57680;54.292;18.598;2022-10-26T05:20:10;11.41;93.38
70271;SHT31;57680;54.292;18.598;2022-10-26T05:22:39;11.41;92.68
70271;SHT31;57680;54.292;18.598;2022-10-26T05:25:05;11.28;92.92
70271;SHT31;57680;54.292;18.598;2022-10-26T05:27:31;11.24;92.87
70271;SHT31;57680;54.292;18.598;2022-10-26T05:29:57;11.16;93.15
70271;SHT31;57680;54.292;18.598;2022-10-26T05:32:23;11.04;93.32
70271;SHT31;57680;54.292;18.598;2022-10-26T05:34:48;11.02;93.54
70271;SHT31;57680;54.292;18.598;2022-10-26T05:37:14;10.96;93.96
70271;SHT31;57680;54.292;18.598;2022-10-26T05:39:40;10.95;94.10
70271;SHT31;57680;54.292;18.598;2022-10-26T05:42:05;10.86;94.09
70271;SHT31;57680;54.292;18.598;2022-10-26T05:44:31;10.85;94.21
70271;SHT31;57680;54.292;18.598;2022-10-26T05:46:56;10.79;94.58
70271;SHT31;57680;54.292;18.598;2022-10-26T05:49:22;10.76;94.40
70271;SHT31;57680;54.292;18.598;2022-10-26T05:51:48;10.72;94.53
70271;SHT31;57680;54.292;18.598;2022-10-26T05:54:13;10.66;94.56
70271;SHT31;57680;54.292;18.598;2022-10-26T05:56:40;10.61;94.72
70271;SHT31;57680;54.292;18.598;2022-10-26T05:59:13;10.55;94.77
70271;SHT31;57680;54.292;18.598;2022-10-26T06:01:50;10.64;94.98
70271;SHT31;57680;54.292;18.598;2022-10-26T06:04:28;10.77;94.73
70271;SHT31;57680;54.292;18.598;2022-10-26T06:06:56;10.95;94.55
70271;SHT31;57680;54.292;18.598;2022-10-26T06:09:23;11.16;93.96
70271;SHT31;57680;54.292;18.598;2022-10-26T06:11:49;11.33;93.35
70271;SHT31;57680;54.292;18.598;2022-10-26T06:14:15;11.50;93.04
70271;SHT31;57680;54.292;18.598;2022-10-26T06:19:46;11.89;91.57
70271;SHT31;57680;54.292;18.598;2022-10-26T06:28:31;12.42;90.08
70271;SHT31;57680;54.292;18.598;2022-10-26T06:30:51;12.52;88.38
70271;SHT31;57680;54.292;18.598;2022-10-26T06:33:17;12.67;89.08
70271;SHT31;57680;54.292;18.598;2022-10-26T06:38:26;12.88;86.48
70271;SHT31;57680;54.292;18.598;2022-10-26T06:40:54;12.95;86.70
70271;SHT31;57680;54.292;18.598;2022-10-26T06:43:25;13.03;86.86
70271;SHT31;57680;54.292;18.598;2022-10-26T06:45:59;13.07;86.20
70271;SHT31;57680;54.292;18.598;2022-10-26T06:48:27;13.15;86.01
70271;SHT31;57680;54.292;18.598;2022-10-26T06:50:54;13.24;86.12
70271;SHT31;57680;54.292;18.598;2022-10-26T06:53:36;13.26;85.94
70271;SHT31;57680;54.292;18.598;2022-10-26T06:56:02;13.31;85.87
70271;SHT31;57680;54.292;18.598;2022-10-26T06:58:32;13.35;85.51
70271;SHT31;57680;54.292;18.598;2022-10-26T07:00:59;13.25;85.35
70271;SHT31;57680;54.292;18.598;2022-10-26T07:03:25;13.34;85.58
70271;SHT31;57680;54.292;18.598;2022-10-26T07:05:51;13.38;84.85
70271;SHT31;57680;54.292;18.598;2022-10-26T07:08:17;13.45;84.46
70271;SHT31;57680;54.292;18.598;2022-10-26T07:10:43;13.56;83.75
70271;SHT31;57680;54.292;18.598;2022-10-26T07:13:09;13.62;82.97
70271;SHT31;57680;54.292;18.598;2022-10-26T07:15:36;13.66;83.17
70271;SHT31;57680;54.292;18.598;2022-10-26T07:18:04;13.73;82.42
70271;SHT31;57680;54.292;18.598;2022-10-26T07:20:31;13.72;82.28
70271;SHT31;57680;54.292;18.598;2022-10-26T07:22:57;13.72;82.23
70271;SHT31;57680;54.292;18.598;2022-10-26T07:25:24;13.74;82.30
70271;SHT31;57680;54.292;18.598;2022-10-26T07:27:50;13.84;82.29
70271;SHT31;57680;54.292;18.598;2022-10-26T07:30:16;13.91;81.63
70271;SHT31;57680;54.292;18.598;2022-10-26T07:32:42;13.99;81.53
70271;SHT31;57680;54.292;18.598;2022-10-26T07:35:08;14.02;81.15
70271;SHT31;57680;54.292;18.598;2022-10-26T07:37:34;14.06;80.79
70271;SHT31;57680;54.292;18.598;2022-10-26T07:39:59;14.10;81.20
70271;SHT31;57680;54.292;18.598;2022-10-26T07:42:26;14.12;80.72
70271;SHT31;57680;54.292;18.598;2022-10-26T07:44:52;14.16;80.00
70271;SHT31;57680;54.292;18.598;2022-10-26T07:47:17;14.25;80.03
70271;SHT31;57680;54.292;18.598;2022-10-26T07:49:43;14.33;79.80
70271;SHT31;57680;54.292;18.598;2022-10-26T07:52:09;14.41;79.14
70271;SHT31;57680;54.292;18.598;2022-10-26T07:54:35;14.44;79.18
70271;SHT31;57680;54.292;18.598;2022-10-26T07:57:01;14.42;78.50
70271;SHT31;57680;54.292;18.598;2022-10-26T07:59:27;14.57;79.38
70271;SHT31;57680;54.292;18.598;2022-10-26T08:01:52;14.67;78.59
70271;SHT31;57680;54.292;18.598;2022-10-26T08:04:18;14.76;78.48
70271;SHT31;57680;54.292;18.598;2022-10-26T08:06:43;14.89;77.81
70271;SHT31;57680;54.292;18.598;2022-10-26T08:09:09;15.00;78.09
70271;SHT31;57680;54.292;18.598;2022-10-26T08:11:35;15.14;77.38
70271;SHT31;57680;54.292;18.598;2022-10-26T08:14:01;15.19;76.76
70271;SHT31;57680;54.292;18.598;2022-10-26T08:16:27;15.30;76.77
70271;SHT31;57680;54.292;18.598;2022-10-26T08:18:53;15.39;76.01
70271;SHT31;57680;54.292;18.598;2022-10-26T08:21:18;15.50;76.08
70271;SHT31;57680;54.292;18.598;2022-10-26T08:23:44;15.61;74.83
70271;SHT31;57680;54.292;18.598;2022-10-26T08:26:10;15.65;75.11
70271;SHT31;57680;54.292;18.598;2022-10-26T08:28:36;15.34;75.31
70271;SHT31;57680;54.292;18.598;2022-10-26T08:31:02;15.20;75.88
70271;SHT31;57680;54.292;18.598;2022-10-26T08:33:28;15.16;75.84
70271;SHT31;57680;54.292;18.598;2022-10-26T08:35:59;15.02;76.60
70271;SHT31;57680;54.292;18.598;2022-10-26T08:38:25;14.85;76.87
70271;SHT31;57680;54.292;18.598;2022-10-26T08:40:51;14.60;76.95
70271;SHT31;57680;54.292;18.598;2022-10-26T08:48:31;14.04;79.13
70271;SHT31;57680;54.292;18.598;2022-10-26T08:51:19;14.21;78.85
70271;SHT31;57680;54.292;18.598;2022-10-26T08:53:58;14.14;79.01
70271;SHT31;57680;54.292;18.598;2022-10-26T08:56:28;14.02;79.35
70271;SHT31;57680;54.292;18.598;2022-10-26T09:01:44;13.82;79.98
70271;SHT31;57680;54.292;18.598;2022-10-26T09:04:11;13.94;80.09
70271;SHT31;57680;54.292;18.598;2022-10-26T09:12:23;14.10;79.97
70271;SHT31;57680;54.292;18.598;2022-10-26T09:17:31;14.25;79.22
70271;SHT31;57680;54.292;18.598;2022-10-26T09:22:44;14.18;78.06
70271;SHT31;57680;54.292;18.598;2022-10-26T09:25:20;14.45;77.48
70271;SHT31;57680;54.292;18.598;2022-10-26T09:27:55;14.89;76.35
70271;SHT31;57680;54.292;18.598;2022-10-26T09:30:22;15.10;77.01
70271;SHT31;57680;54.292;18.598;2022-10-26T09:35:24;15.27;75.15
70271;SHT31;57680;54.292;18.598;2022-10-26T09:41:09;15.57;72.73
70271;SHT31;57680;54.292;18.598;2022-10-26T09:43:42;15.74;73.07
70271;SHT31;57680;54.292;18.598;2022-10-26T09:46:43;16.02;72.55
70271;SHT31;57680;54.292;18.598;2022-10-26T09:49:11;16.30;71.37
70271;SHT31;57680;54.292;18.598;2022-10-26T09:51:39;16.38;71.04
70271;SHT31;57680;54.292;18.598;2022-10-26T09:54:16;16.39;70.94
70271;SHT31;57680;54.292;18.598;2022-10-26T09:56:48;16.06;71.35
70271;SHT31;57680;54.292;18.598;2022-10-26T09:59:17;16.11;72.03
70271;SHT31;57680;54.292;18.598;2022-10-26T10:01:44;16.00;71.89
70271;SHT31;57680;54.292;18.598;2022-10-26T10:06:44;16.00;71.14
70271;SHT31;57680;54.292;18.598;2022-10-26T10:09:19;16.15;70.73
70271;SHT31;57680;54.292;18.598;2022-10-26T10:11:54;16.16;70.86
70271;SHT31;57680;54.292;18.598;2022-10-26T10:14:26;15.73;71.37
70271;SHT31;57680;54.292;18.598;2022-10-26T10:16:55;15.65;71.89
70271;SHT31;57680;54.292;18.598;2022-10-26T10:19:24;15.90;72.52
70271;SHT31;57680;54.292;18.598;2022-10-26T10:21:54;16.09;70.74
70271;SHT31;57680;54.292;18.598;2022-10-26T10:24:40;16.39;70.39
70271;SHT31;57680;54.292;18.598;2022-10-26T10:29:45;16.76;68.64
70271;SHT31;57680;54.292;18.598;2022-10-26T10:32:19;16.63;68.37
70271;SHT31;57680;54.292;18.598;2022-10-26T10:34:49;16.80;68.40
70271;SHT31;57680;54.292;18.598;2022-10-26T10:37:39;16.70;68.86
70271;SHT31;57680;54.292;18.598;2022-10-26T10:40:20;16.70;67.68
70271;SHT31;57680;54.292;18.598;2022-10-26T10:42:46;16.91;67.90
70271;SHT31;57680;54.292;18.598;2022-10-26T10:45:27;16.53;67.96
70271;SHT31;57680;54.292;18.598;2022-10-26T10:48:24;16.46;67.70
70271;SHT31;57680;54.292;18.598;2022-10-26T10:51:00;16.45;67.90
70271;SHT31;57680;54.292;18.598;2022-10-26T10:53:44;16.08;68.42
70271;SHT31;57680;54.292;18.598;2022-10-26T10:59:53;15.97;70.25
70271;SHT31;57680;54.292;18.598;2022-10-26T11:11:26;15.58;71.92
70271;SHT31;57680;54.292;18.598;2022-10-26T11:14:02;15.55;71.61
70271;SHT31;57680;54.292;18.598;2022-10-26T11:16:36;15.42;71.18
70271;SHT31;57680;54.292;18.598;2022-10-26T11:19:19;15.30;72.21
70271;SHT31;57680;54.292;18.598;2022-10-26T11:21:52;15.16;72.02
70271;SHT31;57680;54.292;18.598;2022-10-26T11:24:35;15.05;71.88
70271;SHT31;57680;54.292;18.598;2022-10-26T11:27:13;14.85;72.49
70271;SHT31;57680;54.292;18.598;2022-10-26T11:29:50;14.64;73.28
70271;SHT31;57680;54.292;18.598;2022-10-26T11:32:52;14.61;74.11
70271;SHT31;57680;54.292;18.598;2022-10-26T11:35:17;14.54;74.85
70271;SHT31;57680;54.292;18.598;2022-10-26T11:37:50;14.67;74.86
70271;SHT31;57680;54.292;18.598;2022-10-26T11:40:41;14.92;73.93
70271;SHT31;57680;54.292;18.598;2022-10-26T11:43:14;14.91;73.80
70271;SHT31;57680;54.292;18.598;2022-10-26T11:45:45;14.93;74.10
70271;SHT31;57680;54.292;18.598;2022-10-26T11:50:46;14.98;73.33
70271;SHT31;57680;54.292;18.598;2022-10-26T11:53:16;15.02;73.64
70271;SHT31;57680;54.292;18.598;2022-10-26T11:55:51;15.06;73.74
70271;SHT31;57680;54.292;18.598;2022-10-26T11:58:17;15.05;73.44
70271;SHT31;57680;54.292;18.598;2022-10-26T12:00:57;15.05;73.82
70271;SHT31;57680;54.292;18.598;2022-10-26T12:03:31;15.05;74.12
70271;SHT31;57680;54.292;18.598;2022-10-26T12:05:57;14.98;73.96
70271;SHT31;57680;54.292;18.598;2022-10-26T12:08:30;15.00;74.07
70271;SHT31;57680;54.292;18.598;2022-10-26T12:13:49;14.91;74.36
70271;SHT31;57680;54.292;18.598;2022-10-26T12:19:18;14.93;73.95
70271;SHT31;57680;54.292;18.598;2022-10-26T12:21:44;15.00;73.73
70271;SHT31;57680;54.292;18.598;2022-10-26T12:27:02;15.09;72.63
70271;SHT31;57680;54.292;18.598;2022-10-26T12:29:38;15.13;73.00
70271;SHT31;57680;54.292;18.598;2022-10-26T12:37:37;15.65;72.38
70271;SHT31;57680;54.292;18.598;2022-10-26T12:45:44;15.39;71.11
70271;SHT31;57680;54.292;18.598;2022-10-26T12:48:37;15.00;72.49
70271;SHT31;57680;54.292;18.598;2022-10-26T12:56:55;14.48;74.60
70271;SHT31;57680;54.292;18.598;2022-10-26T13:01:56;14.31;74.74
70271;SHT31;57680;54.292;18.598;2022-10-26T13:07:19;14.14;74.69
70271;SHT31;57680;54.292;18.598;2022-10-26T13:15:30;14.16;75.92
70271;SHT31;57680;54.292;18.598;2022-10-26T13:20:25;14.09;75.67
70271;SHT31;57680;54.292;18.598;2022-10-26T13:22:52;14.03;76.22
70271;SHT31;57680;54.292;18.598;2022-10-26T13:25:29;14.04;76.89
70271;SHT31;57680;54.292;18.598;2022-10-26T13:28:01;14.02;76.23
70271;SHT31;57680;54.292;18.598;2022-10-26T13:30:41;13.99;76.39
70271;SHT31;57680;54.292;18.598;2022-10-26T13:33:13;13.97;76.73
70271;SHT31;57680;54.292;18.598;2022-10-26T13:35:42;13.94;76.46
70271;SHT31;57680;54.292;18.598;2022-10-26T13:38:10;13.89;77.17
70271;SHT31;57680;54.292;18.598;2022-10-26T13:40:37;13.83;77.14
70271;SHT31;57680;54.292;18.598;2022-10-26T13:43:05;13.76;77.63
70271;SHT31;57680;54.292;18.598;2022-10-26T13:45:59;13.76;77.84
70271;SHT31;57680;54.292;18.598;2022-10-26T13:48:37;13.73;77.99
70271;SHT31;57680;54.292;18.598;2022-10-26T13:51:11;13.70;78.07
70271;SHT31;57680;54.292;18.598;2022-10-26T13:53:44;13.74;78.76
70271;SHT31;57680;54.292;18.598;2022-10-26T13:56:27;13.76;79.13
70271;SHT31;57680;54.292;18.598;2022-10-26T13:59:01;13.79;78.60
70271;SHT31;57680;54.292;18.598;2022-10-26T14:01:28;13.79;78.99
70271;SHT31;57680;54.292;18.598;2022-10-26T14:03:54;13.80;78.75
70271;SHT31;57680;54.292;18.598;2022-10-26T14:06:29;13.82;78.77
70271;SHT31;57680;54.292;18.598;2022-10-26T14:08:59;13.83;78.80
70271;SHT31;57680;54.292;18.598;2022-10-26T14:11:36;13.82;78.84
70271;SHT31;57680;54.292;18.598;2022-10-26T14:14:15;13.83;78.91
70271;SHT31;57680;54.292;18.598;2022-10-26T14:16:44;13.87;79.18
70271;SHT31;57680;54.292;18.598;2022-10-26T14:19:38;13.90;79.51
70271;SHT31;57680;54.292;18.598;2022-10-26T14:22:05;13.91;79.02
70271;SHT31;57680;54.292;18.598;2022-10-26T14:24:33;13.90;78.99
70271;SHT31;57680;54.292;18.598;2022-10-26T14:27:00;13.89;78.71
70271;SHT31;57680;54.292;18.598;2022-10-26T14:29:30;13.82;78.64
70271;SHT31;57680;54.292;18.598;2022-10-26T14:31:55;13.76;78.87
70271;SHT31;57680;54.292;18.598;2022-10-26T14:34:22;13.73;79.13
70271;SHT31;57680;54.292;18.598;2022-10-26T14:37:01;13.69;79.07
70271;SHT31;57680;54.292;18.598;2022-10-26T14:39:37;13.62;79.30
70271;SHT31;57680;54.292;18.598;2022-10-26T14:44:36;13.62;79.75
70271;SHT31;57680;54.292;18.598;2022-10-26T14:47:02;13.61;80.08
70271;SHT31;57680;54.292;18.598;2022-10-26T14:49:28;13.58;80.20
70271;SHT31;57680;54.292;18.598;2022-10-26T14:52:18;13.59;80.57
70271;SHT31;57680;54.292;18.598;2022-10-26T14:54:56;13.61;80.40
70271;SHT31;57680;54.292;18.598;2022-10-26T14:57:34;13.58;80.31
70271;SHT31;57680;54.292;18.598;2022-10-26T15:00:04;13.61;80.42
70271;SHT31;57680;54.292;18.598;2022-10-26T15:02:37;13.62;80.11
70271;SHT31;57680;54.292;18.598;2022-10-26T15:07:43;13.61;80.19
70271;SHT31;57680;54.292;18.598;2022-10-26T15:13:31;13.55;79.24
70271;SHT31;57680;54.292;18.598;2022-10-26T15:16:08;13.52;78.32
70271;SHT31;57680;54.292;18.598;2022-10-26T15:18:35;13.48;78.21
70271;SHT31;57680;54.292;18.598;2022-10-26T15:21:02;13.48;78.13
70271;SHT31;57680;54.292;18.598;2022-10-26T15:23:31;13.42;77.70
70271;SHT31;57680;54.292;18.598;2022-10-26T15:26:01;13.43;77.40
70271;SHT31;57680;54.292;18.598;2022-10-26T15:28:46;13.42;77.62
70271;SHT31;57680;54.292;18.598;2022-10-26T15:36:26;13.28;79.35
70271;SHT31;57680;54.292;18.598;2022-10-26T15:38:52;13.19;79.86
70271;SHT31;57680;54.292;18.598;2022-10-26T15:41:22;13.14;80.45
70271;SHT31;57680;54.292;18.598;2022-10-26T15:43:49;13.04;80.82
70271;SHT31;57680;54.292;18.598;2022-10-26T15:46:15;12.98;80.93
70271;SHT31;57680;54.292;18.598;2022-10-26T15:48:41;12.90;81.08
70271;SHT31;57680;54.292;18.598;2022-10-26T15:51:11;12.84;81.43
70271;SHT31;57680;54.292;18.598;2022-10-26T15:53:38;12.74;81.55
70271;SHT31;57680;54.292;18.598;2022-10-26T15:56:12;12.66;82.05
70271;SHT31;57680;54.292;18.598;2022-10-26T15:58:38;12.54;82.21
70271;SHT31;57680;54.292;18.598;2022-10-26T16:01:04;12.43;82.49
70271;SHT31;57680;54.292;18.598;2022-10-26T16:03:30;12.33;82.83
70271;SHT31;57680;54.292;18.598;2022-10-26T16:05:57;12.23;83.37
70271;SHT31;57680;54.292;18.598;2022-10-26T16:08:26;12.22;83.62
70271;SHT31;57680;54.292;18.598;2022-10-26T16:10:52;12.21;83.83
70271;SHT31;57680;54.292;18.598;2022-10-26T16:13:17;12.16;84.14
70271;SHT31;57680;54.292;18.598;2022-10-26T16:15:43;12.18;84.68
70271;SHT31;57680;54.292;18.598;2022-10-26T16:18:09;12.16;84.59
70271;SHT31;57680;54.292;18.598;2022-10-26T16:20:35;12.16;84.67
70271;SHT31;57680;54.292;18.598;2022-10-26T16:23:01;12.16;84.84
70271;SHT31;57680;54.292;18.598;2022-10-26T16:25:43;12.16;85.18
70271;SHT31;57680;54.292;18.598;2022-10-26T16:28:11;12.19;85.30
70271;SHT31;57680;54.292;18.598;2022-10-26T16:30:37;12.18;85.52
70271;SHT31;57680;54.292;18.598;2022-10-26T16:33:02;12.19;85.52
70271;SHT31;57680;54.292;18.598;2022-10-26T16:35:28;12.21;85.59
70271;SHT31;57680;54.292;18.598;2022-10-26T16:37:53;12.23;85.56
70271;SHT31;57680;54.292;18.598;2022-10-26T16:40:19;12.26;85.40
70271;SHT31;57680;54.292;18.598;2022-10-26T16:42:45;12.25;85.31
70271;SHT31;57680;54.292;18.598;2022-10-26T16:45:12;12.25;85.35
70271;SHT31;57680;54.292;18.598;2022-10-26T16:47:38;12.26;85.35
70271;SHT31;57680;54.292;18.598;2022-10-26T16:50:08;12.25;85.38
70271;SHT31;57680;54.292;18.598;2022-10-26T16:52:35;12.25;85.62
70271;SHT31;57680;54.292;18.598;2022-10-26T16:55:02;12.23;85.64
70271;SHT31;57680;54.292;18.598;2022-10-26T16:57:28;12.22;85.62
70271;SHT31;57680;54.292;18.598;2022-10-26T16:59:53;12.23;85.78
70271;SHT31;57680;54.292;18.598;2022-10-26T17:02:19;12.19;85.74
70271;SHT31;57680;54.292;18.598;2022-10-26T17:04:45;12.19;85.72
70271;SHT31;57680;54.292;18.598;2022-10-26T17:07:11;12.16;85.73
70271;SHT31;57680;54.292;18.598;2022-10-26T17:09:37;12.19;85.84
70271;SHT31;57680;54.292;18.598;2022-10-26T17:12:02;12.16;85.83
70271;SHT31;57680;54.292;18.598;2022-10-26T17:14:28;12.16;85.78
70271;SHT31;57680;54.292;18.598;2022-10-26T17:16:54;12.15;85.66
70271;SHT31;57680;54.292;18.598;2022-10-26T17:19:19;12.09;85.64
70271;SHT31;57680;54.292;18.598;2022-10-26T17:21:45;12.06;85.83
70271;SHT31;57680;54.292;18.598;2022-10-26T17:24:11;11.99;86.03
70271;SHT31;57680;54.292;18.598;2022-10-26T17:26:38;11.89;86.27
70271;SHT31;57680;54.292;18.598;2022-10-26T17:29:04;11.78;86.53
70271;SHT31;57680;54.292;18.598;2022-10-26T17:31:30;11.63;87.00
70271;SHT31;57680;54.292;18.598;2022-10-26T17:33:56;11.53;87.33
70271;SHT31;57680;54.292;18.598;2022-10-26T17:36:23;11.41;87.50
70271;SHT31;57680;54.292;18.598;2022-10-26T17:38:52;11.31;87.95
70271;SHT31;57680;54.292;18.598;2022-10-26T17:41:19;11.27;87.98
70271;SHT31;57680;54.292;18.598;2022-10-26T17:43:47;11.16;88.02
70271;SHT31;57680;54.292;18.598;2022-10-26T17:46:15;11.06;88.58
70271;SHT31;57680;54.292;18.598;2022-10-26T17:48:41;11.02;89.03